Time;durP1;ratioP1;P1;durP2;ratioP2;P2;SDS_P1;SDS_P2;PMS_P1;PMS_P2;Temp;Humidity;BMP_temperature;BMP_pressure;BME280_temperature;BME280_humidity;BME280_pressure;Samples;Min_cycle;Max_cycle;Signal;HPM_P1;HPM_P2
2021/11/30 00:00:49;;;;;;;3.2;2.2;;;;;;;;;;;;;
2021/11/30 00:03:14;;;;;;;3;2.3;;;;;;;;;;;;;
2021/11/30 00:05:39;;;;;;;2.8;2.2;;;;;;;;;;;;;
2021/11/30 00:08:05;;;;;;;2.8;2;;;;;;;;;;;;;
2021/11/30 00:10:46;;;;;;;3.2;2.1;;;;;;;;;;;;;
2021/11/30 00:12:55;;;;;;;2.7;2.3;;;;;;;;;;;;;
2021/11/30 00:15:24;;;;;;;2.6;2.1;;;;;;;;;;;;;
2021/11/30 00:17:49;;;;;;;2.2;1.8;;;;;;;;;;;;;
2021/11/30 00:20:15;;;;;;;2.6;1.6;;;;;;;;;;;;;
2021/11/30 00:22:40;;;;;;;2.2;2;;;;;;;;;;;;;
2021/11/30 00:25:06;;;;;;;3.6;2;;;;;;;;;;;;;
2021/11/30 00:27:31;;;;;;;2.8;1.8;;;;;;;;;;;;;
2021/11/30 00:29:57;;;;;;;3.1;2.1;;;;;;;;;;;;;
2021/11/30 00:32:22;;;;;;;2.8;1.8;;;;;;;;;;;;;
2021/11/30 00:34:48;;;;;;;3.2;2.1;;;;;;;;;;;;;
2021/11/30 00:37:13;;;;;;;2;1.7;;;;;;;;;;;;;
2021/11/30 00:39:38;;;;;;;2.8;1.7;;;;;;;;;;;;;
2021/11/30 00:44:33;;;;;;;3.3;2.4;;;;;;;;;;;;;
2021/11/30 00:46:55;;;;;;;2.7;1.7;;;;;;;;;;;;;
2021/11/30 00:49:20;;;;;;;2.7;2;;;;;;;;;;;;;
2021/11/30 00:51:45;;;;;;;3.2;2;;;;;;;;;;;;;
2021/11/30 00:54:12;;;;;;;2.6;2.1;;;;;;;;;;;;;
2021/11/30 00:56:37;;;;;;;4.4;2.4;;;;;;;;;;;;;
2021/11/30 00:59:03;;;;;;;3.6;2.1;;;;;;;;;;;;;
2021/11/30 01:01:30;;;;;;;3.3;2;;;;;;;;;;;;;
2021/11/30 01:03:55;;;;;;;3.2;1.9;;;;;;;;;;;;;
2021/11/30 01:06:20;;;;;;;3.9;1.9;;;;;;;;;;;;;
2021/11/30 01:08:47;;;;;;;2.3;1.7;;;;;;;;;;;;;
2021/11/30 01:11:12;;;;;;;2.2;1.6;;;;;;;;;;;;;
2021/11/30 01:13:39;;;;;;;2;1.4;;;;;;;;;;;;;
2021/11/30 01:16:04;;;;;;;4.6;1.6;;;;;;;;;;;;;
2021/11/30 01:18:32;;;;;;;1.8;1.5;;;;;;;;;;;;;
2021/11/30 01:20:57;;;;;;;2.1;1.7;;;;;;;;;;;;;
2021/11/30 01:23:23;;;;;;;3.1;1.6;;;;;;;;;;;;;
2021/11/30 01:25:48;;;;;;;1.8;1.4;;;;;;;;;;;;;
2021/11/30 01:28:14;;;;;;;2.8;1.4;;;;;;;;;;;;;
2021/11/30 01:30:39;;;;;;;1.5;1.4;;;;;;;;;;;;;
2021/11/30 01:33:06;;;;;;;1.5;1.3;;;;;;;;;;;;;
2021/11/30 01:35:29;;;;;;;1.5;1.2;;;;;;;;;;;;;
2021/11/30 01:37:55;;;;;;;2.4;2.2;;;;;;;;;;;;;
2021/11/30 01:40:20;;;;;;;4.1;2.9;;;;;;;;;;;;;
2021/11/30 01:42:48;;;;;;;3;2.4;;;;;;;;;;;;;
2021/11/30 01:45:19;;;;;;;2.5;1.9;;;;;;;;;;;;;
2021/11/30 01:47:53;;;;;;;2.5;1.7;;;;;;;;;;;;;
2021/11/30 01:50:02;;;;;;;2.8;1.9;;;;;;;;;;;;;
2021/11/30 01:52:29;;;;;;;3.6;2.4;;;;;;;;;;;;;
2021/11/30 01:54:54;;;;;;;3.8;2.5;;;;;;;;;;;;;
2021/11/30 01:57:20;;;;;;;3.6;1.8;;;;;;;;;;;;;
2021/11/30 01:59:45;;;;;;;2.7;1.9;;;;;;;;;;;;;
2021/11/30 02:02:10;;;;;;;2.9;1.8;;;;;;;;;;;;;
2021/11/30 02:04:35;;;;;;;4.1;2.1;;;;;;;;;;;;;
2021/11/30 02:07:00;;;;;;;3;1.8;;;;;;;;;;;;;
2021/11/30 02:09:28;;;;;;;3.7;1.7;;;;;;;;;;;;;
2021/11/30 02:11:53;;;;;;;4.2;2.3;;;;;;;;;;;;;
2021/11/30 02:14:19;;;;;;;2.1;1.8;;;;;;;;;;;;;
2021/11/30 02:16:45;;;;;;;2.6;1.9;;;;;;;;;;;;;
2021/11/30 02:19:10;;;;;;;1.8;1.4;;;;;;;;;;;;;
2021/11/30 02:21:37;;;;;;;1.5;1.3;;;;;;;;;;;;;
2021/11/30 02:24:02;;;;;;;1.1;1;;;;;;;;;;;;;
2021/11/30 02:26:27;;;;;;;2.7;1;;;;;;;;;;;;;
2021/11/30 02:28:56;;;;;;;1.5;1.2;;;;;;;;;;;;;
2021/11/30 02:31:19;;;;;;;1.7;1.1;;;;;;;;;;;;;
2021/11/30 02:36:36;;;;;;;2.4;1.7;;;;;;;;;;;;;
2021/11/30 02:38:57;;;;;;;1.4;1.3;;;;;;;;;;;;;
2021/11/30 02:41:23;;;;;;;2.2;1.2;;;;;;;;;;;;;
2021/11/30 02:43:48;;;;;;;1.4;1.2;;;;;;;;;;;;;
2021/11/30 02:46:13;;;;;;;1.4;1.3;;;;;;;;;;;;;
2021/11/30 02:51:06;;;;;;;1.1;1;;;;;;;;;;;;;
2021/11/30 02:53:28;;;;;;;1.6;1.2;;;;;;;;;;;;;
2021/11/30 02:55:54;;;;;;;1.2;1.1;;;;;;;;;;;;;
2021/11/30 02:58:19;;;;;;;1.4;1;;;;;;;;;;;;;
2021/11/30 03:00:44;;;;;;;1.5;1.4;;;;;;;;;;;;;
2021/11/30 03:03:10;;;;;;;2.5;1.2;;;;;;;;;;;;;
2021/11/30 03:05:35;;;;;;;1.3;1.2;;;;;;;;;;;;;
2021/11/30 03:08:02;;;;;;;1.2;1.1;;;;;;;;;;;;;
2021/11/30 03:10:27;;;;;;;1.4;1.3;;;;;;;;;;;;;
2021/11/30 03:12:55;;;;;;;2.1;1.6;;;;;;;;;;;;;
2021/11/30 03:15:20;;;;;;;2.9;2;;;;;;;;;;;;;
2021/11/30 03:17:50;;;;;;;2.9;1.8;;;;;;;;;;;;;
2021/11/30 03:20:15;;;;;;;1.9;1.5;;;;;;;;;;;;;
2021/11/30 03:22:40;;;;;;;1.7;1.5;;;;;;;;;;;;;
2021/11/30 03:25:05;;;;;;;1.7;1.3;;;;;;;;;;;;;
2021/11/30 03:27:32;;;;;;;1.5;1.3;;;;;;;;;;;;;
2021/11/30 03:29:57;;;;;;;1.3;1.2;;;;;;;;;;;;;
2021/11/30 03:34:49;;;;;;;1.4;1.3;;;;;;;;;;;;;
2021/11/30 03:37:17;;;;;;;1.8;1.4;;;;;;;;;;;;;
2021/11/30 03:39:42;;;;;;;1;1;;;;;;;;;;;;;
2021/11/30 03:42:08;;;;;;;1.5;1;;;;;;;;;;;;;
2021/11/30 03:44:33;;;;;;;1.6;1.2;;;;;;;;;;;;;
2021/11/30 03:46:59;;;;;;;1.5;1.2;;;;;;;;;;;;;
2021/11/30 03:49:24;;;;;;;1.5;1.4;;;;;;;;;;;;;
2021/11/30 03:51:50;;;;;;;1.4;1.1;;;;;;;;;;;;;
2021/11/30 03:54:15;;;;;;;1;0.9;;;;;;;;;;;;;
2021/11/30 03:56:42;;;;;;;1.3;1.2;;;;;;;;;;;;;
2021/11/30 03:59:07;;;;;;;1.2;1.1;;;;;;;;;;;;;
2021/11/30 04:02:38;;;;;;;1.3;1.1;;;;;;;0.26;86.96484;935.9291;;;;
2021/11/30 04:05:02;;;;;;;4;2.6;;;;;;;0.15;88.08887;936.0686;;;;
2021/11/30 04:07:28;;;;;;;2.1;1.7;;;;;;;-0.06;89.43555;936.0669;;;;
2021/11/30 04:09:57;;;;;;;1.4;1.3;;;;;;;-0.01;89.35938;936.0287;;;;
2021/11/30 04:12:24;;;;;;;1.4;1.3;;;;;;;0.01;88.88477;936.0219;;;;
2021/11/30 04:14:49;;;;;;;2.3;1.7;;;;;;;0.01;89.46387;936.065;;;;
2021/11/30 04:17:14;;;;;;;12.9;9.9;;;;;;;0.1;89.38281;935.9689;;;;
2021/11/30 04:19:44;;;;;;;5.1;3.8;;;;;;;-0.07;89.96973;935.9233;;;;
2021/11/30 04:22:09;;;;;;;2;1.6;;;;;;;-0.13;89.4873;935.9783;;;;
2021/11/30 04:24:37;;;;;;;2.7;1.8;;;;;;;-0.12;89.74902;936.0196;;;;
2021/11/30 04:27:02;;;;;;;1.8;1.6;;;;;;;-0.24;90.15625;935.9295;;;;
2021/11/30 04:29:31;;;;;;;2.3;1.6;;;;;;;-0.29;90.37793;935.9028;;;;
2021/11/30 04:31:55;;;;;;;2.3;1.4;;;;;;;-0.26;90.70898;935.97;;;;
2021/11/30 04:34:21;;;;;;;1.1;1.1;;;;;;;-0.42;91.39746;935.8762;;;;
2021/11/30 04:36:46;;;;;;;2.3;1;;;;;;;-0.49;92.00488;935.8825;;;;
2021/11/30 04:39:12;;;;;;;3.1;1.9;;;;;;;-0.49;92.36035;935.8653;;;;
2021/11/30 04:41:40;;;;;;;1.1;0.8;;;;;;;-0.29;91.4248;935.8146;;;;
2021/11/30 04:44:03;;;;;;;4.3;1.9;;;;;;;-0.24;90.32324;935.8236;;;;
2021/11/30 04:46:40;;;;;;;1.4;1.2;;;;;;;-0.15;88.16016;935.8869;;;;
2021/11/30 04:49:05;;;;;;;2.5;1.5;;;;;;;-0.06;87.39746;935.7467;;;;
2021/11/30 04:51:22;;;;;;;0.8;0.8;;;;;;;0.05;84.13477;935.8336;;;;
2021/11/30 04:53:51;;;;;;;0.6;0.6;;;;;;;0.15;84.21094;935.7477;;;;
2021/11/30 04:56:16;;;;;;;0.7;0.7;;;;;;;0.22;81.53906;935.7999;;;;
2021/11/30 04:58:42;;;;;;;0.4;0.4;;;;;;;0.28;82.01953;935.7759;;;;
2021/11/30 05:01:07;;;;;;;0.7;0.7;;;;;;;0.14;84.16406;935.8067;;;;
2021/11/30 05:03:32;;;;;;;0.8;0.5;;;;;;;0.26;82.62891;935.7828;;;;
2021/11/30 05:06:03;;;;;;;0.7;0.6;;;;;;;0.35;81.51855;935.7872;;;;
2021/11/30 05:08:29;;;;;;;0.3;0.3;;;;;;;0.49;76.89648;935.7952;;;;
2021/11/30 05:10:55;;;;;;;1.2;0.5;;;;;;;0.6;76.3916;935.8571;;;;
2021/11/30 05:13:24;;;;;;;0.4;0.3;;;;;;;0.63;75.60449;935.7505;;;;
2021/11/30 05:15:52;;;;;;;0.3;0.3;;;;;;;0.7;77.10156;935.7291;;;;
2021/11/30 05:18:22;;;;;;;0.7;0.5;;;;;;;0.67;77.83301;935.7428;;;;
2021/11/30 05:20:47;;;;;;;0.5;0.5;;;;;;;0.66;75.31934;935.7634;;;;
2021/11/30 05:23:27;;;;;;;0.5;0.4;;;;;;;0.63;75.84961;935.835;;;;
2021/11/30 05:25:51;;;;;;;0.3;0.3;;;;;;;0.69;75.22363;935.77;;;;
2021/11/30 05:34:52;;;;;;;0.9;0.6;;;;;;;0.58;77.24707;935.882;;;;
2021/11/30 05:37:18;;;;;;;0.4;0.4;;;;;;;0.63;73.60742;935.8172;;;;
2021/11/30 05:39:44;;;;;;;2.1;0.5;;;;;;;0.69;72.88086;935.8359;;;;
2021/11/30 05:42:09;;;;;;;1.3;0.4;;;;;;;0.68;75.43359;935.8599;;;;
2021/11/30 05:44:36;;;;;;;0.8;0.7;;;;;;;0.67;75.94531;935.8506;;;;
2021/11/30 05:47:01;;;;;;;0.3;0.3;;;;;;;0.8;76.2373;935.8806;;;;
2021/11/30 05:49:26;;;;;;;0.4;0.4;;;;;;;0.74;75.08789;935.899;;;;
2021/11/30 05:51:53;;;;;;;0.6;0.6;;;;;;;0.8;75.08789;935.8859;;;;
2021/11/30 05:54:24;;;;;;;1.7;0.4;;;;;;;0.74;73.88281;935.8474;;;;
2021/11/30 05:56:52;;;;;;;0.9;0.5;;;;;;;0.8;74.6084;935.8445;;;;
2021/11/30 05:59:21;;;;;;;0.9;0.5;;;;;;;0.56;78.35938;935.9542;;;;
2021/11/30 06:01:53;;;;;;;1.2;0.6;;;;;;;0.61;79.12598;936.0451;;;;
2021/11/30 06:04:23;;;;;;;5;2.3;;;;;;;0.57;78.96289;936.0485;;;;
2021/11/30 06:06:53;;;;;;;1.5;0.7;;;;;;;0.34;80.38184;935.8613;;;;
2021/11/30 06:09:18;;;;;;;4.7;1.5;;;;;;;0.25;83.02637;936.0414;;;;
2021/11/30 06:11:47;;;;;;;1.3;1;;;;;;;0.34;78.70801;935.9597;;;;
2021/11/30 06:14:16;;;;;;;1.9;0.7;;;;;;;0.66;74.98438;935.894;;;;
2021/11/30 06:16:55;;;;;;;0.7;0.7;;;;;;;0.68;76.65039;935.8667;;;;
2021/11/30 06:19:22;;;;;;;0.8;0.6;;;;;;;0.63;77.81348;935.8702;;;;
2021/11/30 06:21:52;;;;;;;5.9;1.4;;;;;;;0.61;78.26758;935.9327;;;;
2021/11/30 06:24:21;;;;;;;2.2;1.7;;;;;;;0.52;80.48145;936.0625;;;;
2021/11/30 06:26:50;;;;;;;1.5;1.2;;;;;;;0.42;80.17188;935.8801;;;;
2021/11/30 06:29:15;;;;;;;1.8;1;;;;;;;0.45;79.57715;935.9973;;;;
2021/11/30 06:31:47;;;;;;;1.7;1.1;;;;;;;0.33;80.8125;936.0463;;;;
2021/11/30 06:34:18;;;;;;;2;1.3;;;;;;;0.39;81.82813;936.0758;;;;
2021/11/30 06:36:44;;;;;;;3.1;1.8;;;;;;;0.13;81.85547;935.9238;;;;
2021/11/30 06:39:09;;;;;;;2.4;1.2;;;;;;;0.12;82.34473;936.0669;;;;
2021/11/30 06:41:36;;;;;;;1.7;1.2;;;;;;;0.29;82.08789;935.9766;;;;
2021/11/30 06:44:02;;;;;;;4.3;2.3;;;;;;;0.37;83.41797;936.0722;;;;
2021/11/30 06:46:32;;;;;;;2.8;1.8;;;;;;;-0.03;82.95996;935.8122;;;;
2021/11/30 06:49:01;;;;;;;2.8;1.6;;;;;;;0.16;81.31543;935.8821;;;;
2021/11/30 06:51:26;;;;;;;2.3;1.5;;;;;;;0.02;84.47266;935.7888;;;;
2021/11/30 06:53:53;;;;;;;5.6;2.6;;;;;;;0.25;84.90137;935.892;;;;
2021/11/30 06:56:19;;;;;;;3.6;2.2;;;;;;;0.43;83.93359;935.7505;;;;
2021/11/30 06:58:46;;;;;;;5.1;2;;;;;;;0.57;82.99023;935.7946;;;;
2021/11/30 07:01:12;;;;;;;2.3;1.8;;;;;;;0.39;81.86035;935.7661;;;;
2021/11/30 07:03:42;;;;;;;3.3;1.4;;;;;;;0.05;82.35254;935.7897;;;;
2021/11/30 07:06:11;;;;;;;4.4;1.6;;;;;;;0.21;83.05273;935.6373;;;;
2021/11/30 07:08:50;;;;;;;2.1;1.2;;;;;;;0.33;79.25195;935.7316;;;;
2021/11/30 07:11:06;;;;;;;3.4;2.2;;;;;;;0.42;80.33984;935.8304;;;;
2021/11/30 07:13:27;;;;;;;2.3;1.1;;;;;;;0.33;81.99316;935.8074;;;;
2021/11/30 07:16:00;;;;;;;2.8;1.5;;;;;;;0.32;81.80371;935.772;;;;
2021/11/30 07:18:30;;;;;;;3.8;1.7;;;;;;;0.35;81.86426;935.7832;;;;
2021/11/30 07:20:59;;;;;;;5.6;2.3;;;;;;;0.26;82.54883;935.6996;;;;
2021/11/30 07:23:29;;;;;;;5.9;2.2;;;;;;;0.36;82.7373;935.7234;;;;
2021/11/30 07:25:54;;;;;;;6;2.9;;;;;;;0.36;83.27246;935.704;;;;
2021/11/30 07:28:28;;;;;;;3.8;2.7;;;;;;;0.69;82.72266;935.7374;;;;
2021/11/30 07:30:50;;;;;;;6.6;2.6;;;;;;;0.76;81.27539;935.7239;;;;
2021/11/30 07:33:18;;;;;;;12.9;7.4;;;;;;;0.92;81.2041;935.7;;;;
2021/11/30 07:35:43;;;;;;;18.8;9.4;;;;;;;0.9;81.89453;935.8192;;;;
2021/11/30 07:38:13;;;;;;;8.7;5.1;;;;;;;0.79;82.8877;935.7469;;;;
2021/11/30 07:40:38;;;;;;;8.2;4;;;;;;;0.88;82.54785;935.6852;;;;
2021/11/30 07:43:06;;;;;;;4.3;2.9;;;;;;;0.97;82.12988;935.5829;;;;
2021/11/30 07:45:31;;;;;;;6.3;3.8;;;;;;;1.03;81.80762;935.468;;;;
2021/11/30 07:47:59;;;;;;;10.9;5.5;;;;;;;0.8;84.17285;935.654;;;;
2021/11/30 07:50:29;;;;;;;6.5;3.8;;;;;;;1.11;82.77051;935.5975;;;;
2021/11/30 07:52:54;;;;;;;4;2.3;;;;;;;1.33;79.63184;935.6286;;;;
2021/11/30 07:55:24;;;;;;;3.7;1.5;;;;;;;1.54;77.64551;935.5912;;;;
2021/11/30 07:57:51;;;;;;;1.9;1.2;;;;;;;1.32;74.95801;935.5764;;;;
2021/11/30 08:00:16;;;;;;;3.1;1.2;;;;;;;1.28;76.40234;935.5778;;;;
2021/11/30 08:02:41;;;;;;;2.6;1.8;;;;;;;1.47;74.36816;935.5706;;;;
2021/11/30 08:05:14;;;;;;;2.9;1.3;;;;;;;0.88;76.84375;935.4133;;;;
2021/11/30 08:07:40;;;;;;;2.5;1.5;;;;;;;1.13;74.30957;935.3716;;;;
2021/11/30 08:10:07;;;;;;;3.2;1.2;;;;;;;1.12;75.98145;935.3077;;;;
2021/11/30 08:12:34;;;;;;;1.5;1.2;;;;;;;1.4;76.37988;935.3279;;;;
2021/11/30 08:14:59;;;;;;;3.1;1.7;;;;;;;1.43;77.54785;935.2436;;;;
2021/11/30 08:17:26;;;;;;;2.7;1.9;;;;;;;1.68;76.86523;935.2791;;;;
2021/11/30 08:19:58;;;;;;;3.2;1.5;;;;;;;1.59;74.49121;935.2372;;;;
2021/11/30 08:22:26;;;;;;;3.9;1.7;;;;;;;1.4;76.37891;935.0279;;;;
2021/11/30 08:24:56;;;;;;;5.8;1.6;;;;;;;1.26;76.41016;935.3047;;;;
2021/11/30 08:27:21;;;;;;;1.4;1.3;;;;;;;1.38;77.38281;935.1301;;;;
2021/11/30 08:29:50;;;;;;;2.3;1;;;;;;;1.42;74.28027;935.2336;;;;
2021/11/30 08:32:14;;;;;;;3.5;1.8;;;;;;;1.43;73.77148;935.1598;;;;
2021/11/30 08:34:42;;;;;;;2.9;1.5;;;;;;;1.19;75.28027;935.1883;;;;
2021/11/30 08:37:07;;;;;;;3.2;1.7;;;;;;;1.08;78.20898;935.2144;;;;
2021/11/30 08:39:35;;;;;;;2;0.7;;;;;;;1.09;77.9873;935.2822;;;;
2021/11/30 08:42:00;;;;;;;0.8;0.5;;;;;;;1.03;76.40332;935.312;;;;
2021/11/30 08:44:25;;;;;;;0.5;0.5;;;;;;;0.92;78.58301;935.2793;;;;
2021/11/30 08:46:53;;;;;;;1.5;0.9;;;;;;;0.87;77.54395;935.1344;;;;
2021/11/30 08:49:18;;;;;;;2.6;0.8;;;;;;;1.05;76.19434;935.3872;;;;
2021/11/30 08:51:44;;;;;;;1.3;1.2;;;;;;;1.19;75.5166;935.1375;;;;
2021/11/30 08:54:10;;;;;;;2;1.2;;;;;;;1.18;76.4082;935.2233;;;;
2021/11/30 08:56:38;;;;;;;2.1;1.2;;;;;;;1.32;77.52637;935.2319;;;;
2021/11/30 08:59:03;;;;;;;1.1;0.8;;;;;;;1.35;75.81152;935.175;;;;
2021/11/30 09:01:33;;;;;;;1.3;0.7;;;;;;;1.4;74.50098;935.3078;;;;
2021/11/30 09:04:03;;;;;;;0.9;0.7;;;;;;;1.29;75.39844;935.1036;;;;
2021/11/30 09:06:33;;;;;;;1.5;1;;;;;;;1.12;77.04492;935.1786;;;;
2021/11/30 09:08:58;;;;;;;1.7;1.3;;;;;;;1.25;72.42969;935.2109;;;;
2021/11/30 09:11:25;;;;;;;0.7;0.6;;;;;;;1.55;72.33691;935.1978;;;;
2021/11/30 09:13:50;;;;;;;0.9;0.5;;;;;;;1.53;72.60156;935.2425;;;;
2021/11/30 09:16:24;;;;;;;1.3;0.5;;;;;;;1.5;74.08398;935.2307;;;;
2021/11/30 09:18:49;;;;;;;2.2;0.8;;;;;;;1.33;73.29395;935.1572;;;;
2021/11/30 09:21:19;;;;;;;1.4;0.8;;;;;;;1.61;71.91113;935.1511;;;;
2021/11/30 09:23:48;;;;;;;1.4;0.8;;;;;;;1.52;73.60645;935.1435;;;;
2021/11/30 09:26:19;;;;;;;2.5;0.9;;;;;;;1.66;74.66992;935.3254;;;;
2021/11/30 09:28:49;;;;;;;3;2.1;;;;;;;1.53;74.83789;935.2333;;;;
2021/11/30 09:31:14;;;;;;;2;1.1;;;;;;;1.33;76.42188;935.204;;;;
2021/11/30 09:33:42;;;;;;;1.9;1;;;;;;;1.43;77.70605;935.0641;;;;
2021/11/30 09:36:07;;;;;;;3;1.7;;;;;;;1.65;76.82813;935.0672;;;;
2021/11/30 09:38:34;;;;;;;0.7;0.7;;;;;;;1.47;74.05566;935.0961;;;;
2021/11/30 09:41:01;;;;;;;1.9;0.9;;;;;;;1.49;75.50195;934.7555;;;;
2021/11/30 09:43:28;;;;;;;3.5;2.2;;;;;;;1.4;78.64746;934.8309;;;;
2021/11/30 09:45:52;;;;;;;4.7;2.2;;;;;;;1.72;77.4668;935.0059;;;;
2021/11/30 09:48:21;;;;;;;1.5;0.9;;;;;;;1.81;75.72852;934.8638;;;;
2021/11/30 09:50:46;;;;;;;2.8;1.2;;;;;;;1.96;74.71289;934.9067;;;;
2021/11/30 09:53:11;;;;;;;1.2;0.6;;;;;;;2.02;73.79492;934.5519;;;;
2021/11/30 09:55:41;;;;;;;0.8;0.8;;;;;;;2.07;73.5791;934.6943;;;;
2021/11/30 09:58:04;;;;;;;0.8;0.8;;;;;;;2.21;72.78516;934.6271;;;;
2021/11/30 10:00:33;;;;;;;1.8;0.8;;;;;;;2.16;73.61719;934.662;;;;
2021/11/30 10:02:59;;;;;;;0.6;0.4;;;;;;;1.98;73.16016;934.6799;;;;
2021/11/30 10:05:22;;;;;;;0.8;0.7;;;;;;;1.84;74.49121;934.4228;;;;
2021/11/30 10:07:51;;;;;;;1.6;0.8;;;;;;;2.02;76.64941;934.3031;;;;
2021/11/30 10:10:17;;;;;;;1;0.9;;;;;;;2.13;75.7041;934.3013;;;;
2021/11/30 10:12:45;;;;;;;0.7;0.7;;;;;;;2.14;75.22656;934.2742;;;;
2021/11/30 10:15:13;;;;;;;2.1;0.9;;;;;;;2.26;75.71777;934.3477;;;;
2021/11/30 10:17:38;;;;;;;1;0.9;;;;;;;2.24;75.35449;934.229;;;;
2021/11/30 10:20:07;;;;;;;1.1;0.9;;;;;;;2.23;75.96875;934.1409;;;;
2021/11/30 10:22:30;;;;;;;8.6;5.5;;;;;;;2.16;76.79688;934.0809;;;;
2021/11/30 10:24:59;;;;;;;2.3;1.1;;;;;;;1.99;76.64453;933.9634;;;;
2021/11/30 10:27:24;;;;;;;1.1;0.9;;;;;;;2.03;77.96973;934.0614;;;;
2021/11/30 10:29:53;;;;;;;2.6;1.6;;;;;;;1.98;78.19727;933.9355;;;;
2021/11/30 10:32:18;;;;;;;2.5;1.3;;;;;;;2.02;78.0918;933.9079;;;;
2021/11/30 10:37:14;;;;;;;1.4;0.7;;;;;;;2.01;79.45508;933.9838;;;;
2021/11/30 10:39:44;;;;;;;1.4;0.8;;;;;;;2.22;77.73828;933.7902;;;;
2021/11/30 10:42:09;;;;;;;1.7;0.9;;;;;;;2.26;79.1875;934.0474;;;;
2021/11/30 10:44:34;;;;;;;0.4;0.4;;;;;;;2.42;79.11719;933.8244;;;;
2021/11/30 10:46:59;;;;;;;1.7;1;;;;;;;2.31;78.92871;933.5912;;;;
2021/11/30 10:49:24;;;;;;;0.6;0.6;;;;;;;2.22;79.80762;933.7461;;;;
2021/11/30 10:55:38;;;;;;;3;1.4;;;;;;;2.02;82.48145;933.5328;;;;
2021/11/30 10:58:05;;;;;;;1.3;1.2;;;;;;;1.76;84.72363;933.2841;;;;
2021/11/30 11:00:32;;;;;;;1.2;1.1;;;;;;;1.87;85.55957;933.4935;;;;
2021/11/30 11:03:00;;;;;;;1.9;1.3;;;;;;;1.97;85.58203;933.4917;;;;
2021/11/30 11:05:28;;;;;;;1.5;1.1;;;;;;;1.88;85.55273;933.2947;;;;
2021/11/30 11:07:56;;;;;;;1.3;1.1;;;;;;;2.03;85.98438;933.4553;;;;
2021/11/30 11:10:23;;;;;;;2;0.9;;;;;;;2.27;85.59863;933.2335;;;;
2021/11/30 11:12:47;;;;;;;1;0.7;;;;;;;2.17;85.66699;933.4568;;;;
2021/11/30 11:15:12;;;;;;;2.7;1.8;;;;;;;2.43;85.2041;933.4455;;;;
2021/11/30 11:17:51;;;;;;;1.3;0.8;;;;;;;2;86.33691;933.3661;;;;
2021/11/30 11:20:20;;;;;;;1.1;0.9;;;;;;;2.07;86.70996;933.3657;;;;
2021/11/30 11:22:45;;;;;;;1.6;0.8;;;;;;;1.98;87.32715;933.2344;;;;
2021/11/30 11:25:10;;;;;;;2;1;;;;;;;1.91;87.51563;933.2344;;;;
2021/11/30 11:27:37;;;;;;;2.1;1.5;;;;;;;2.13;87.28125;933.2756;;;;
2021/11/30 11:30:01;;;;;;;25.2;10.6;;;;;;;2.4;86.95605;933.3577;;;;
2021/11/30 11:32:26;;;;;;;4.6;2.8;;;;;;;2.42;86.67969;933.1409;;;;
2021/11/30 11:34:55;;;;;;;1.3;1.1;;;;;;;2.43;86.48145;933.1297;;;;
2021/11/30 11:37:21;;;;;;;2.8;1.8;;;;;;;2.48;86.57129;933.2411;;;;
2021/11/30 11:39:51;;;;;;;2.3;1.6;;;;;;;2.53;86.44531;933.2889;;;;
2021/11/30 11:42:22;;;;;;;2.1;1.5;;;;;;;2.44;87.98242;933.2249;;;;
2021/11/30 11:44:45;;;;;;;1.1;1;;;;;;;2.55;86.81738;933.199;;;;
2021/11/30 11:47:13;;;;;;;2.4;1.6;;;;;;;2.69;86.97168;933.185;;;;
2021/11/30 11:49:39;;;;;;;2.1;1.5;;;;;;;2.85;86.44238;933.1523;;;;
2021/11/30 11:52:04;;;;;;;1.4;1.2;;;;;;;2.64;86.9834;933.0279;;;;
2021/11/30 11:54:32;;;;;;;1.4;1.2;;;;;;;2.52;88.26855;932.9146;;;;
2021/11/30 11:56:58;;;;;;;1.1;1;;;;;;;2.39;88.81348;932.765;;;;
2021/11/30 11:59:25;;;;;;;2.5;1.7;;;;;;;2.44;89.19238;932.8194;;;;
2021/11/30 12:01:53;;;;;;;1.5;1.3;;;;;;;2.56;88.93945;932.795;;;;
2021/11/30 12:04:18;;;;;;;2.3;1.6;;;;;;;2.42;89.20215;932.8025;;;;
2021/11/30 12:06:43;;;;;;;3.9;1.9;;;;;;;2.46;89.5791;932.7391;;;;
2021/11/30 12:09:08;;;;;;;1.7;1.4;;;;;;;2.69;88.05762;932.7503;;;;
2021/11/30 12:11:33;;;;;;;1.6;1.4;;;;;;;2.48;88.64355;932.6486;;;;
2021/11/30 12:14:06;;;;;;;3.2;1.8;;;;;;;2.55;88.18652;932.8353;;;;
2021/11/30 12:16:36;;;;;;;1.8;1.4;;;;;;;2.63;87.25;932.7587;;;;
2021/11/30 12:19:03;;;;;;;1.2;1.1;;;;;;;2.75;87.87988;932.6814;;;;
2021/11/30 12:21:32;;;;;;;2.9;1.5;;;;;;;2.6;88.09668;932.6887;;;;
2021/11/30 12:23:56;;;;;;;5.4;2.8;;;;;;;2.73;88.26855;932.632;;;;
2021/11/30 12:28:36;;;;;;;3.2;1.8;;;;;;;3.04;87.77148;932.6124;;;;
2021/11/30 12:31:04;;;;;;;4.9;3;;;;;;;3.01;87.61816;932.6908;;;;
2021/11/30 12:33:30;;;;;;;3.9;2;;;;;;;2.52;89.98535;932.6342;;;;
2021/11/30 12:35:58;;;;;;;7.2;3.1;;;;;;;2.58;90.63477;932.6908;;;;
2021/11/30 12:38:23;;;;;;;13.6;5.2;;;;;;;2.63;91.00586;932.7147;;;;
2021/11/30 12:40:49;;;;;;;10.3;4.6;;;;;;;2.77;90.44043;932.7211;;;;
2021/11/30 12:43:13;;;;;;;10.5;3.9;;;;;;;2.52;91.21582;932.7158;;;;
2021/11/30 12:45:38;;;;;;;14.8;6.4;;;;;;;2.51;92.02051;932.6511;;;;
2021/11/30 12:48:03;;;;;;;9.8;3.5;;;;;;;2.57;92.54004;932.6994;;;;
2021/11/30 12:50:29;;;;;;;3.4;1.9;;;;;;;2.41;92.83887;932.5751;;;;
2021/11/30 12:52:54;;;;;;;1.8;1.6;;;;;;;2.23;94.32227;932.632;;;;
2021/11/30 12:55:23;;;;;;;2.4;1.3;;;;;;;2.25;94.98926;932.6539;;;;
2021/11/30 12:57:49;;;;;;;1.3;1.1;;;;;;;2.1;95.6377;932.4988;;;;
2021/11/30 13:00:14;;;;;;;3.2;1.4;;;;;;;2.24;96.03809;932.5812;;;;
2021/11/30 13:02:46;;;;;;;1.3;1.2;;;;;;;2.36;95.65039;932.639;;;;
2021/11/30 13:05:09;;;;;;;2;1.1;;;;;;;2.19;96.45313;932.6156;;;;
2021/11/30 13:07:37;;;;;;;2.3;2;;;;;;;2.38;95.8916;932.5464;;;;
2021/11/30 13:10:02;;;;;;;2.8;1.8;;;;;;;2.45;95.48242;932.5887;;;;
2021/11/30 13:12:28;;;;;;;2;1.4;;;;;;;2.18;96.98828;932.5391;;;;
2021/11/30 13:14:53;;;;;;;2.2;1.1;;;;;;;2.28;97.3584;932.7036;;;;
2021/11/30 13:17:30;;;;;;;2.5;1.9;;;;;;;2.49;96.41992;932.6236;;;;
2021/11/30 13:20:02;;;;;;;2.3;1.6;;;;;;;2.57;95.75684;932.4951;;;;
2021/11/30 13:22:27;;;;;;;3.5;2.2;;;;;;;2.48;96.18457;932.6439;;;;
2021/11/30 13:25:01;;;;;;;5.1;2.8;;;;;;;2.49;96.17383;932.5419;;;;
2021/11/30 13:27:30;;;;;;;1.9;1.6;;;;;;;2.41;96.86328;932.5775;;;;
2021/11/30 13:29:58;;;;;;;1.6;1.3;;;;;;;2.34;97.42676;932.5096;;;;
2021/11/30 13:32:22;;;;;;;1.1;0.9;;;;;;;2.57;96.96777;932.4818;;;;
2021/11/30 13:34:53;;;;;;;1.4;1.2;;;;;;;2.59;96.98047;932.4365;;;;
2021/11/30 13:37:25;;;;;;;2.4;1.7;;;;;;;2.33;98.11035;932.3533;;;;
2021/11/30 13:39:54;;;;;;;2.4;1.6;;;;;;;2.4;97.97949;932.5767;;;;
2021/11/30 13:42:19;;;;;;;2.2;1.2;;;;;;;2.55;97.15137;932.3898;;;;
2021/11/30 13:44:49;;;;;;;2.9;1.8;;;;;;;2.5;96.76953;932.2861;;;;
2021/11/30 13:47:14;;;;;;;2.8;1.9;;;;;;;2.42;97.44824;932.4615;;;;
2021/11/30 13:49:39;;;;;;;3.3;1.8;;;;;;;2.23;98.75684;932.4632;;;;
2021/11/30 13:52:04;;;;;;;6.2;3.2;;;;;;;2.41;98.7002;932.579;;;;
2021/11/30 13:54:30;;;;;;;2.1;1.4;;;;;;;2.61;97.17578;932.5717;;;;
2021/11/30 13:57:00;;;;;;;2.7;1.6;;;;;;;2.65;97.34277;932.4779;;;;
2021/11/30 13:59:28;;;;;;;3.5;2.3;;;;;;;2.7;96.78125;932.3591;;;;
2021/11/30 14:01:49;;;;;;;4.3;2.1;;;;;;;2.63;96.83398;932.38;;;;
2021/11/30 14:04:10;;;;;;;1.8;1.4;;;;;;;2.69;96.39844;932.2819;;;;
2021/11/30 14:06:35;;;;;;;2.6;1.9;;;;;;;2.51;97.16406;932.325;;;;
2021/11/30 14:09:04;;;;;;;2.5;1.8;;;;;;;2.55;97.20801;932.3317;;;;
2021/11/30 14:11:29;;;;;;;1.3;1.2;;;;;;;2.64;96.83398;932.2001;;;;
2021/11/30 14:13:54;;;;;;;1.6;1.4;;;;;;;2.8;96.45605;932.3903;;;;
2021/11/30 14:16:29;;;;;;;1.7;1.5;;;;;;;2.78;96.06152;932.4023;;;;
2021/11/30 14:18:57;;;;;;;0.9;0.9;;;;;;;2.63;96.65527;932.2715;;;;
2021/11/30 14:21:22;;;;;;;1.9;1.3;;;;;;;2.85;96.47949;932.3928;;;;
2021/11/30 14:23:47;;;;;;;0.8;0.8;;;;;;;2.69;96.82422;932.3753;;;;
2021/11/30 14:26:12;;;;;;;3.9;2.7;;;;;;;2.69;97.05957;932.1772;;;;
2021/11/30 14:28:42;;;;;;;2.1;1.4;;;;;;;2.82;96.59668;932.4391;;;;
2021/11/30 14:31:08;;;;;;;2;1.6;;;;;;;2.88;95.43359;932.2766;;;;
2021/11/30 14:33:35;;;;;;;1.7;1.4;;;;;;;2.9;95.05469;932.2291;;;;
2021/11/30 14:36:00;;;;;;;1.6;1.3;;;;;;;3;95.16602;932.3027;;;;
2021/11/30 14:38:30;;;;;;;1.8;1.2;;;;;;;2.97;94.76758;932.4565;;;;
2021/11/30 14:40:55;;;;;;;1.3;1.2;;;;;;;3.14;93.69531;932.4539;;;;
2021/11/30 14:43:24;;;;;;;1.1;0.8;;;;;;;3.22;92.39941;932.4752;;;;
2021/11/30 14:45:48;;;;;;;1.3;1.1;;;;;;;3.48;90.87305;932.5982;;;;
2021/11/30 14:48:15;;;;;;;2;1.4;;;;;;;3.44;90.95508;932.5452;;;;
2021/11/30 14:50:41;;;;;;;1.7;1.2;;;;;;;3.46;91.2373;932.555;;;;
2021/11/30 14:53:06;;;;;;;0.7;0.6;;;;;;;3.79;89.71387;932.5198;;;;
2021/11/30 14:55:32;;;;;;;3.4;1.1;;;;;;;3.91;89.16699;932.6027;;;;
2021/11/30 14:57:56;;;;;;;0.4;0.4;;;;;;;3.97;88.70605;932.5726;;;;
2021/11/30 15:00:21;;;;;;;0.8;0.8;;;;;;;4.04;88.45117;932.7517;;;;
2021/11/30 15:02:46;;;;;;;1.5;0.8;;;;;;;4.07;89.41406;932.6038;;;;
2021/11/30 15:05:57;;;;;;;0.5;0.3;;;;;;;4.05;89.63379;932.7001;;;;
2021/11/30 15:08:19;;;;;;;2.6;1.5;;;;;;;4.05;89.56836;932.6727;;;;
2021/11/30 15:10:44;;;;;;;5.3;2.4;;;;;;;4.08;90.28223;932.8183;;;;
2021/11/30 15:13:09;;;;;;;27;11;;;;;;;4.07;90.11133;932.6905;;;;
2021/11/30 15:15:39;;;;;;;8.3;3.2;;;;;;;4.13;90.61816;932.8156;;;;
2021/11/30 15:18:03;;;;;;;0.4;0.3;;;;;;;4.16;89.70313;932.9147;;;;
2021/11/30 15:20:33;;;;;;;1.1;0.7;;;;;;;4.27;88.96094;932.9028;;;;
2021/11/30 15:23:02;;;;;;;1.5;0.6;;;;;;;4.35;88.66113;932.9125;;;;
2021/11/30 15:25:27;;;;;;;1.6;1.4;;;;;;;4.36;89.6875;933.0955;;;;
2021/11/30 15:27:54;;;;;;;0.9;0.7;;;;;;;4.27;89.97363;932.9437;;;;
2021/11/30 15:30:19;;;;;;;1.1;0.8;;;;;;;4.32;89.58984;933.0835;;;;
2021/11/30 15:32:48;;;;;;;1.3;0.6;;;;;;;4.28;89.69238;933.118;;;;
2021/11/30 15:35:12;;;;;;;1.4;0.8;;;;;;;4.19;90.62012;933.2062;;;;
2021/11/30 15:37:40;;;;;;;2.9;1.7;;;;;;;4.26;90.34082;933.1451;;;;
2021/11/30 15:40:05;;;;;;;0.6;0.4;;;;;;;4.26;90.47852;933.128;;;;
2021/11/30 15:42:33;;;;;;;1.3;0.2;;;;;;;4.24;90.65234;933.1644;;;;
2021/11/30 15:45:03;;;;;;;0.5;0.4;;;;;;;4.25;90.95801;933.171;;;;
2021/11/30 15:47:28;;;;;;;1;0.9;;;;;;;4.23;90.77441;933.1909;;;;
2021/11/30 15:49:55;;;;;;;1;0.8;;;;;;;4.17;92.09961;933.1671;;;;
2021/11/30 15:52:20;;;;;;;0.9;0.6;;;;;;;4.22;91.80566;933.2079;;;;
2021/11/30 15:54:48;;;;;;;4.5;3.9;;;;;;;4.21;91.50195;933.1599;;;;
2021/11/30 15:57:24;;;;;;;1.5;0.8;;;;;;;4.25;91.52051;933.1378;;;;
2021/11/30 15:59:36;;;;;;;6.2;1.9;;;;;;;4.18;91.62012;933.1375;;;;
2021/11/30 16:02:05;;;;;;;2.1;1.5;;;;;;;4.03;92.50684;933.2587;;;;
2021/11/30 16:04:30;;;;;;;1.7;1;;;;;;;4.14;92.00391;933.0914;;;;
2021/11/30 16:06:58;;;;;;;2;1.5;;;;;;;4.07;92.06641;933.1362;;;;
2021/11/30 16:09:23;;;;;;;1.6;1.2;;;;;;;4.18;92.24805;933.1972;;;;